Jack C. Davis Observatory, Carson City, Nevada Weather observations

Data are for observation ending at time listed.
 Day   Time    Ave.   Ave.  Ave.  Vector   Max.   Stn.    Total    Solar   Ave.  
  of    of     Air    Rel.  Wind   Wind    Wind   Baro.  Precip.   Rad.    Soil  
Year   Day     Temp.  Hum.  Speed  Dir.    Gust   Pres.                    Temp. 
2018   (PST)    F      %     mph   deg.    mph     mb.     in.     W/m2     F   
------------------------------------------------------------------------------
 287   12:00   50.0    24    6.9    95     12.1   851.9    0.00     712    999.0
 287   12:10   49.8    23    7.1    81     17.1   851.8    0.00     710    999.0
 287   12:20   50.5    24    7.8    91     12.3   851.7    0.00     706    999.0
 287   12:30   50.7    23    8.3    92     15.1   851.7    0.00     700    999.0
 287   12:40   51.0    23    7.7    92     14.7   851.6    0.00     693    999.0
 287   12:50   51.1    23    7.5    72     15.9   851.5    0.00     685    999.0
 287   13:00   51.4    22    6.8    72     12.3   851.4    0.00     674    999.0
 287   13:10   51.7    22    6.6    71     11.9   851.5    0.00     662    999.0
 287   13:20   51.6    21    7.1    73     13.8   851.5    0.00     648    999.0
 287   13:30   50.8    21    8.0    74     13.9   851.5    0.00     633    999.0
 287   13:40   50.9    21    8.9    73     14.9   851.5    0.00     617    999.0
 287   13:50   51.3    20    8.8    75     14.0   851.5    0.00     599    999.0
 287   14:00   51.3    20    8.5    67     15.3   851.6    0.00     579    999.0
 287   14:10   51.4    21    8.8    73     16.6   851.6    0.00     557    999.0
 287   14:20   51.0    21    9.1    71     17.0   851.7    0.00     534    999.0
 287   14:30   50.7    22   10.0    74     16.6   851.8    0.00     508    999.0
 287   14:40   51.1    21    8.8    64     17.3   851.9    0.00     483    999.0
 287   14:50   50.8    21    9.0    62     15.4   851.9    0.00     457    999.0
 287   15:00   50.5    20    8.5    69     16.0   851.9    0.00     430    999.0
 287   15:10   50.7    20    7.4    58     16.1   851.9    0.00     401    999.0
 287   15:20   50.3    21    8.9    69     17.5   851.8    0.00     372    999.0
 287   15:30   49.9    21    7.9    72     13.4   851.8    0.00     341    999.0
 287   15:40   50.0    21    8.1    62     13.7   851.7    0.00     310    999.0
 287   15:50   50.1    20    7.3    57     13.9   851.8    0.00     280    999.0
 287   16:00   49.7    22    7.8    66     13.8   851.9    0.00     248    999.0
 287   16:10   49.2    23    8.5    52     15.3   851.9    0.00     216    999.0
 287   16:20   49.0    23    6.2    53     14.9   852.0    0.00     185    999.0
 287   16:30   48.9    23    6.1    67     12.3   852.0    0.00     146    999.0
 287   16:40   47.6    24    4.8    77     11.4   852.1    0.00      17    999.0
 287   16:50   46.9    24    5.4    37      9.9   852.2    0.00      14    999.0
 287   17:00   46.6    24    5.9    54     11.3   852.3    0.00      12    999.0
 287   17:10   46.2    24    4.1    56      8.9   852.4    0.00       9    999.0
 287   17:20   45.8    23    3.7    51      7.5   852.6    0.00       6    999.0
 287   17:30   45.5    23    2.6    57      6.1   852.7    0.00       3    999.0
 287   17:40   45.2    22    2.1    60      4.5   852.8    0.00       1    999.0
 287   17:50   44.8    22    1.4    54      4.2   852.8    0.00       1    999.0
 287   18:00   44.3    21    1.6    22      6.0   853.0    0.00       0    999.0
 287   18:10   44.1    21    1.7   346      5.7   853.2    0.00       0    999.0
 287   18:20   43.7    22    2.1   309      3.9   853.4    0.00       0    999.0
 287   18:30   42.3    23    2.5   308      5.2   853.5    0.00       0    999.0
 287   18:40   40.6    26    3.8   317      6.6   853.6    0.00       0    999.0
 287   18:50   39.8    27    3.5   311      6.2   853.7    0.00       0    999.0
 287   19:00   39.6    28    3.5   310      5.7   853.9    0.00       0    999.0
 287   19:10   39.8    28    3.7   300      5.8   854.0    0.00       0    999.0
 287   19:20   39.7    28    3.8   310      5.7   854.1    0.00       0    999.0
 287   19:30   39.1    30    3.8   318      6.2   854.1    0.00       0    999.0
 287   19:40   39.4    30    3.1   323      6.0   854.2    0.00       0    999.0
 287   19:50   39.3    30    2.8   339      6.5   854.3    0.00       0    999.0
 287   20:00   39.5    30    3.6   320      7.1   854.3    0.00       0    999.0
 287   20:10   39.2    30    3.2   324      7.1   854.4    0.00       0    999.0
 287   20:20   39.2    31    4.0   309      6.2   854.5    0.00       0    999.0
 287   20:30   39.5    31    3.9   316      7.5   854.5    0.00       0    999.0
 287   20:40   39.0    32    4.5   311      7.3   854.6    0.00       0    999.0
 287   20:50   39.0    32    4.0   314      7.6   854.8    0.00       0    999.0
 287   21:00   38.5    31    5.0   314      7.2   855.0    0.00       0    999.0
 287   21:10   37.8    32    4.1   317      7.2   855.2    0.00       0    999.0
 287   21:20   38.2    31    1.9   317      6.2   855.2    0.00       0    999.0
 287   21:30   38.7    30    3.7   293      5.9   855.2    0.00       0    999.0
 287   21:40   38.0    31    4.6   268      7.2   855.4    0.00       0    999.0
 287   21:50   36.6    33    6.4   265      7.7   855.5    0.00       0    999.0
 287   22:00   35.4    35    6.7   268      8.1   855.5    0.00       0    999.0
 287   22:10   34.0    38    7.2   269      8.5   855.5    0.00       0    999.0
 287   22:20   34.0    37    6.3   270      8.4   855.6    0.00       0    999.0
 287   22:30   34.6    36    5.8   267      8.4   855.6    0.00       0    999.0
 287   22:40   35.7    33    3.2   290      5.8   855.6    0.00       0    999.0
 287   22:50   36.5    31    4.1   304      6.8   855.7    0.00       0    999.0
 287   23:00   37.9    29    4.2   305      7.6   855.8    0.00       0    999.0
 287   23:10   37.0    30    3.1   328      8.3   855.9    0.00       0    999.0
 287   23:20   37.7    29    3.4   318      5.3   856.0    0.00       0    999.0
 287   23:30   35.7    32    3.3   296      5.4   855.9    0.00       0    999.0
 287   23:40   35.4    32    4.3   283      5.7   855.9    0.00       0    999.0
 287   23:50   36.0    30    3.4   286      6.7   855.9    0.00       0    999.0
 288    0:00   35.6    31    6.3   272      8.7   855.9    0.00       0    999.0
 288    0:10   35.6    31    6.5   271      8.8   855.9    0.00       0    999.0
 288    0:20   35.0    32    4.0   288      7.2   855.9    0.00       0    999.0
 288    0:30   35.9    30    2.3   283      8.4   855.9    0.00       0    999.0
 288    0:40   36.1    30    4.2   276      6.7   856.0    0.00       0    999.0
 288    0:50   35.1    31    3.3   304      5.0   856.0    0.00       0    999.0
 288    1:00   35.4    31    5.6   265      7.7   856.0    0.00       0    999.0
 288    1:10   35.5    31    4.0   266      7.2   856.0    0.00       0    999.0
 288    1:20   36.2    30    4.9   269      8.3   856.0    0.00       0    999.0
 288    1:30   33.8    34    6.5   262      9.4   855.9    0.00       0    999.0
 288    1:40   33.2    36    6.4   265      9.5   855.9    0.00       0    999.0
 288    1:50   34.6    32    5.3   266      9.9   855.9    0.00       0    999.0
 288    2:00   33.7    34    6.4   258      8.7   855.9    0.00       0    999.0
 288    2:10   33.3    35    6.2   261      8.8   855.8    0.00       0    999.0
 288    2:20   33.1    35    6.8   266      8.3   855.8    0.00       0    999.0
 288    2:30   32.0    38    7.4   266      9.1   855.6    0.00       0    999.0
 288    2:40   31.8    39    7.0   269      8.1   855.5    0.00       0    999.0
 288    2:50   32.3    38    6.5   269      8.4   855.4    0.00       0    999.0
 288    3:00   32.4    37    4.7   279      6.7   855.4    0.00       0    999.0
 288    3:10   31.4    40    5.9   269      7.7   855.4    0.00       0    999.0
 288    3:20   31.3    40    6.0   266      7.9   855.5    0.00       0    999.0
 288    3:30   30.6    42    5.1   279      6.9   855.6    0.00       0    999.0
 288    3:40   31.3    39    5.2   272      8.3   855.6    0.00       0    999.0
 288    3:50   30.7    41    5.8   273      8.2   855.7    0.00       0    999.0
 288    4:00   31.3    38    3.7   293      6.5   855.8    0.00       0    999.0
 288    4:10   31.9    37    3.2   310      6.2   855.9    0.00       0    999.0
 288    4:20   32.2    36    0.9   306      2.3   856.0    0.00       0    999.0
 288    4:30   31.1    39    2.9   266      6.4   856.1    0.00       0    999.0
 288    4:40   29.5    42    6.0   258      7.7   856.1    0.00       0    999.0
 288    4:50   29.3    43    5.4   266      6.4   856.1    0.00       0    999.0
 288    5:00   29.6    42    5.1   256      6.9   856.3    0.00       0    999.0
 288    5:10   30.1    41    4.8   250      6.5   856.3    0.00       0    999.0
 288    5:20   29.0    44    5.8   265      7.2   856.4    0.00       0    999.0
 288    5:30   28.8    45    5.7   263      7.2   856.5    0.00       0    999.0
 288    5:40   28.4    46    6.6   265      8.0   856.5    0.00       0    999.0
 288    5:50   29.2    44    6.3   265      8.0   856.6    0.00       0    999.0
 288    6:00   29.0    44    3.3   276      7.1   856.7    0.00       1    999.0
 288    6:10   29.3    42    2.9   291      3.7   856.8    0.00       2    999.0
 288    6:20   30.3    40    2.9   311      5.8   856.9    0.00       5    999.0
 288    6:30   30.1    42    2.3   275      5.3   856.9    0.00      17    999.0
 288    6:40   31.6    39    2.6   216      4.7   857.0    0.00      43    999.0
 288    6:50   32.8    38    0.8   236      3.1   857.2    0.00      75    999.0
 288    7:00   35.2    34    0.4   278      1.3   857.3    0.00     113    999.0
 288    7:10   35.0    34    1.4   292      2.6   857.5    0.00     146    999.0
 288    7:20   38.4    30    0.6   170      2.9   857.6    0.00     176    999.0
 288    7:30   38.5    31    2.3   122      4.0   857.7    0.00     206    999.0
 288    7:40   36.3    35    3.0   104      4.3   857.8    0.00     237    999.0
 288    7:50   35.7    38    2.2    83      4.1   857.9    0.00     268    999.0
 288    8:00   35.5    38    3.1    94      5.8   858.0    0.00     299    999.0
 288    8:10   34.8    38    2.8    67      4.9   858.1    0.00     330    999.0
 288    8:20   35.9    36    2.1    67      4.2   858.2    0.00     360    999.0
 288    8:30   37.2    34    2.3    76      4.2   858.1    0.00     389    999.0
 288    8:40   38.0    32    1.7    94      4.3   858.1    0.00     418    999.0
 288    8:50   39.9    30    1.4   105      3.3   858.1    0.00     446    999.0
 288    9:00   41.7    28    1.8   130      5.0   858.0    0.00     473    999.0
 288    9:10   44.5    24    1.0   148      3.8   858.0    0.00     498    999.0
 288    9:20   45.4    23    2.1   161      7.9   857.9    0.00     523    999.0
 288    9:30   45.5    23    2.4   150      5.7   857.8    0.00     546    999.0
 288    9:40   44.3    24    3.3   127      6.9   857.7    0.00     568    999.0
 288    9:50   44.4    24    2.4    94      5.0   857.6    0.00     587    999.0
 288   10:00   44.5    24    3.5   121      7.1   857.5    0.00     606    999.0
 288   10:10   45.0    22    3.0   106      6.3   857.4    0.00     624    999.0
 288   10:20   46.3    22    2.8    90      7.3   857.4    0.00     640    999.0
 288   10:30   46.1    22    2.5    79      5.8   857.2    0.00     654    999.0
 288   10:40   46.5    22    3.3    71      6.4   857.1    0.00     667    999.0
 288   10:50   47.1    22    2.2    66      7.4   857.0    0.00     678    999.0
 288   11:00   47.8    21    4.0    90      7.3   856.9    0.00     687    999.0
 288   11:10   47.8    20    3.2    79      7.7   856.9    0.00     694    999.0
 288   11:20   48.9    19    2.0    87      6.4   856.8    0.00     700    999.0
 288   11:30   50.1    19    2.5   104      7.0   856.7    0.00     703    999.0
 288   11:40   50.5    18    4.2    69      9.9   856.6    0.00     707    999.0
 288   11:50   50.0    18    3.7   105      8.6   856.5    0.00     709    999.0

Return to Yerington, Nevada graphs page.


Western Regional Climate Center,wrcc@dri.edu